Time;durP1;ratioP1;P1;durP2;ratioP2;P2;SDS_P1;SDS_P2;PMS_P1;PMS_P2;Temp;Humidity;BMP_temperature;BMP_pressure;BME280_temperature;BME280_humidity;BME280_pressure;Samples;Min_cycle;Max_cycle;Signal;HPM_P1;HPM_P2
2021/11/10 00:02:09;;;;;;;5.90;2.80;;;;;;;3.92;100.00;102336.59;6247154;28;20045;-66
2021/11/10 00:05:12;;;;;;;4.90;2.08;;;;;;;3.90;100.00;102337.44;6246197;28;20057;-65
2021/11/10 00:08:14;;;;;;;5.13;2.22;;;;;;;3.87;100.00;102333.13;6247185;28;20053;-66
2021/11/10 00:11:16;;;;;;;4.30;2.67;;;;;;;3.85;100.00;102324.44;6247018;28;20046;-66
2021/11/10 00:14:17;;;;;;;3.28;1.83;;;;;;;3.82;100.00;102327.06;6246204;28;20053;-65
2021/11/10 00:17:18;;;;;;;2.53;1.65;;;;;;;3.78;100.00;102326.19;6257435;28;20059;-65
2021/11/10 00:20:20;;;;;;;6.15;2.15;;;;;;;3.79;100.00;102330.50;6265853;28;20044;-66
2021/11/10 00:23:22;;;;;;;3.47;2.05;;;;;;;3.79;100.00;102333.09;6270989;28;20488;-64
2021/11/10 00:26:24;;;;;;;2.67;1.77;;;;;;;3.76;100.00;102325.28;6271127;28;20052;-65
2021/11/10 00:29:26;;;;;;;4.55;2.33;;;;;;;3.80;100.00;102323.56;6271169;28;20048;-65
2021/11/10 00:32:27;;;;;;;5.68;2.28;;;;;;;3.81;100.00;102320.09;6263767;28;20056;-65
2021/11/10 00:35:29;;;;;;;2.78;1.42;;;;;;;3.80;100.00;102318.38;6270683;28;20053;-65
2021/11/10 00:38:31;;;;;;;2.75;1.80;;;;;;;3.80;100.00;102319.22;6271084;28;20049;-66
2021/11/10 00:41:33;;;;;;;3.63;1.85;;;;;;;3.83;100.00;102330.53;6273741;28;20053;-65
2021/11/10 00:44:34;;;;;;;4.32;1.70;;;;;;;3.79;100.00;102330.50;6275583;28;20052;-66
2021/11/10 00:47:36;;;;;;;2.97;1.55;;;;;;;3.76;100.00;102320.09;6275929;28;20061;-65
2021/11/10 00:50:38;;;;;;;9.70;2.20;;;;;;;3.76;100.00;102314.03;6276059;28;20531;-65
2021/11/10 00:53:40;;;;;;;3.85;2.13;;;;;;;3.79;100.00;102319.25;6275356;28;20145;-66
2021/11/10 00:56:42;;;;;;;3.67;1.85;;;;;;;3.77;100.00;102307.97;6276228;28;20049;-66
2021/11/10 00:59:43;;;;;;;5.38;1.83;;;;;;;3.74;100.00;102306.25;6274993;28;20044;-66
2021/11/10 01:02:44;;;;;;;2.65;1.50;;;;;;;3.76;100.00;102311.44;6274152;28;20053;-66
2021/11/10 01:05:46;;;;;;;2.85;1.38;;;;;;;3.72;100.00;102301.91;6274736;28;20045;-66
2021/11/10 01:08:49;;;;;;;2.10;1.20;;;;;;;3.71;100.00;102311.44;6275697;28;20067;-65
2021/11/10 01:11:50;;;;;;;6.28;1.70;;;;;;;3.66;100.00;102313.16;6275558;28;20059;-65
2021/11/10 01:14:52;;;;;;;4.35;1.48;;;;;;;3.63;100.00;102310.56;6274857;28;20433;-66
2021/11/10 01:17:54;;;;;;;3.45;1.48;;;;;;;3.63;100.00;102304.50;6275500;28;20178;-66
2021/11/10 01:20:55;;;;;;;3.50;1.67;;;;;;;3.56;100.00;102307.09;6275593;28;20049;-66
2021/11/10 01:23:58;;;;;;;2.72;1.52;;;;;;;3.56;100.00;102308.84;6274588;28;20056;-65
2021/11/10 01:26:59;;;;;;;2.88;1.60;;;;;;;3.52;100.00;102310.56;6275445;28;20489;-66
2021/11/10 01:30:01;;;;;;;8.02;2.20;;;;;;;3.52;100.00;102310.56;6275225;28;20049;-66
2021/11/10 01:33:03;;;;;;;1.70;1.30;;;;;;;3.49;100.00;102300.16;6272873;28;20056;-66
2021/11/10 01:36:04;;;;;;;1.33;1.10;;;;;;;3.46;100.00;102292.38;6274627;28;20052;-66
2021/11/10 01:39:09;;;;;;;6.80;2.05;;;;;;;3.45;100.00;102287.16;6274774;28;20049;-66
2021/11/10 01:42:10;;;;;;;2.25;1.42;;;;;;;3.41;100.00;102283.72;6275245;28;20049;-66
2021/11/10 01:45:14;;;;;;;4.00;1.15;;;;;;;3.39;100.00;102280.22;6274044;28;20071;-66
2021/11/10 01:48:16;;;;;;;2.70;1.63;;;;;;;3.37;100.00;102276.78;6275084;28;20057;-66
2021/11/10 01:51:17;;;;;;;4.43;1.80;;;;;;;3.37;100.00;102265.53;6274593;28;20052;-66
2021/11/10 01:54:21;;;;;;;2.42;1.40;;;;;;;3.31;100.00;102262.03;6273390;28;20053;-66
2021/11/10 01:57:23;;;;;;;3.50;1.83;;;;;;;3.33;100.00;102261.19;6274591;28;20045;-66
2021/11/10 02:00:26;;;;;;;2.10;1.52;;;;;;;3.29;100.00;102255.09;6273496;28;20408;-66
2021/11/10 02:03:29;;;;;;;2.15;1.13;;;;;;;3.29;100.00;102250.78;6249299;28;20049;-66
2021/11/10 02:06:30;;;;;;;4.65;2.00;;;;;;;3.28;100.00;102245.59;6249768;28;20140;-66
2021/11/10 02:09:33;;;;;;;3.55;1.40;;;;;;;3.27;100.00;102242.13;6249437;28;20048;-66
2021/11/10 02:12:35;;;;;;;2.50;1.33;;;;;;;3.27;100.00;102234.34;6249674;28;20051;-66
2021/11/10 02:15:37;;;;;;;5.07;1.60;;;;;;;3.24;100.00;102223.06;6248423;28;20049;-66
2021/11/10 02:18:38;;;;;;;1.50;1.05;;;;;;;3.21;100.00;102230.84;6269742;28;20053;-66
2021/11/10 02:21:43;;;;;;;1.40;1.00;;;;;;;3.19;100.00;102235.19;6266225;28;20052;-66
2021/11/10 02:24:45;;;;;;;2.50;1.55;;;;;;;3.16;100.00;102238.63;6271029;28;20076;-66
2021/11/10 02:27:46;;;;;;;1.75;1.10;;;;;;;3.12;100.00;102223.03;6273854;28;20044;-66
2021/11/10 02:30:47;;;;;;;4.45;1.45;;;;;;;3.09;100.00;102223.03;6268631;28;20046;-66
2021/11/10 02:33:49;;;;;;;2.05;1.05;;;;;;;3.09;100.00;102230.81;6271643;28;20056;-66
2021/11/10 02:36:52;;;;;;;4.00;1.27;;;;;;;3.05;100.00;102228.25;6273661;28;20048;-66
2021/11/10 02:39:54;;;;;;;2.60;0.90;;;;;;;3.05;100.00;102230.84;6273689;28;20055;-66
2021/11/10 02:42:56;;;;;;;3.47;1.33;;;;;;;3.04;100.00;102231.72;6273508;28;20503;-67
2021/11/10 02:45:58;;;;;;;3.78;1.60;;;;;;;3.05;100.00;102227.38;6272943;28;20412;-67
2021/11/10 02:48:59;;;;;;;2.45;1.75;;;;;;;3.08;100.00;102216.13;6273118;28;20504;-67
2021/11/10 02:52:05;;;;;;;3.70;1.38;;;;;;;3.10;100.00;102224.78;6273548;28;20045;-67
2021/11/10 02:55:07;;;;;;;2.55;1.15;;;;;;;3.09;100.00;102223.03;6268951;28;20053;-67
2021/11/10 02:58:09;;;;;;;3.00;1.20;;;;;;;3.08;100.00;102218.72;6272831;28;20439;-67
2021/11/10 03:01:10;;;;;;;2.05;1.00;;;;;;;3.06;100.00;102226.50;6263753;28;20037;-67
2021/11/10 03:04:19;;;;;;;1.80;1.25;;;;;;;3.02;100.00;102232.56;6246913;28;20527;-67
2021/11/10 03:07:22;;;;;;;1.80;1.42;;;;;;;2.97;100.00;102235.16;6248252;28;20136;-66
2021/11/10 03:10:24;;;;;;;4.18;1.33;;;;;;;2.98;100.00;102230.81;6248580;28;20046;-67
2021/11/10 03:13:25;;;;;;;2.58;1.35;;;;;;;2.93;100.00;102206.56;6247401;28;20085;-67
2021/11/10 03:16:27;;;;;;;3.03;1.15;;;;;;;2.93;100.00;102202.25;6248544;28;20076;-66
2021/11/10 03:19:28;;;;;;;1.65;1.23;;;;;;;2.91;100.00;102205.72;6248323;28;20493;-66
2021/11/10 03:22:31;;;;;;;3.47;1.05;;;;;;;2.89;100.00;102205.69;6247887;28;20053;-67
2021/11/10 03:25:34;;;;;;;3.22;1.25;;;;;;;2.86;100.00;102199.63;6247036;28;20056;-67
2021/11/10 03:28:35;;;;;;;5.35;1.50;;;;;;;2.86;100.00;102213.50;6247430;28;20045;-67
2021/11/10 03:31:38;;;;;;;4.40;1.73;;;;;;;2.83;100.00;102215.22;6248015;28;20053;-66
2021/11/10 03:34:40;;;;;;;1.48;1.25;;;;;;;2.78;100.00;102210.88;6246794;28;20140;-66
2021/11/10 03:37:43;;;;;;;2.60;1.30;;;;;;;2.76;100.00;102216.91;6247623;28;20053;-66
2021/11/10 03:40:44;;;;;;;4.70;1.55;;;;;;;2.75;100.00;102225.56;6261893;28;20052;-66
2021/11/10 03:43:46;;;;;;;3.78;1.52;;;;;;;2.77;100.00;102231.63;6269435;28;20053;-66
2021/11/10 03:46:47;;;;;;;1.58;1.02;;;;;;;2.74;100.00;102235.09;6272116;28;20052;-66
2021/11/10 03:49:49;;;;;;;2.53;1.58;;;;;;;2.73;100.00;102230.78;6271757;28;20045;-66
2021/11/10 03:52:52;;;;;;;2.80;1.27;;;;;;;2.70;100.00;102229.88;6272126;28;20045;-66
2021/11/10 03:55:53;;;;;;;1.85;1.20;;;;;;;2.68;100.00;102227.28;6271107;28;20561;-65
2021/11/10 03:58:55;;;;;;;4.03;1.08;;;;;;;2.66;100.00;102222.94;6271800;28;20057;-67
2021/11/10 04:01:56;;;;;;;1.73;0.88;;;;;;;2.63;100.00;102225.53;6260918;28;20045;-67
2021/11/10 04:04:57;;;;;;;1.30;0.88;;;;;;;2.59;100.00;102222.06;6262366;28;20415;-67
2021/11/10 04:08:00;;;;;;;1.58;1.35;;;;;;;2.59;100.00;102231.56;6265971;28;20059;-66
2021/11/10 04:11:02;;;;;;;1.70;0.68;;;;;;;2.59;100.00;102237.66;6271595;28;20052;-66
2021/11/10 04:14:04;;;;;;;1.73;1.08;;;;;;;2.59;100.00;102229.88;6270853;28;20127;-67
2021/11/10 04:17:09;;;;;;;2.22;1.52;;;;;;;2.58;100.00;102219.44;6271106;28;20684;-67
2021/11/10 04:20:11;;;;;;;2.10;1.23;;;;;;;2.58;100.00;102222.06;6271259;28;20470;-67
2021/11/10 04:23:14;;;;;;;2.35;1.25;;;;;;;2.59;100.00;102222.06;6271594;28;20049;-66
2021/11/10 04:26:16;;;;;;;2.10;1.15;;;;;;;2.58;100.00;102225.50;6270519;28;20061;-67
2021/11/10 04:29:18;;;;;;;0.90;0.85;;;;;;;2.60;100.00;102228.13;6271478;28;20055;-67
2021/11/10 04:32:20;;;;;;;1.90;1.13;;;;;;;2.57;100.00;102212.53;6269150;28;20044;-66
2021/11/10 04:35:21;;;;;;;1.23;1.13;;;;;;;2.54;100.00;102216.88;6270834;28;20500;-66
2021/11/10 04:38:24;;;;;;;2.28;0.88;;;;;;;2.57;100.00;102212.53;6271247;28;20065;-66
2021/11/10 04:41:26;;;;;;;1.27;0.90;;;;;;;2.54;100.00;102214.28;6271059;28;20441;-67
2021/11/10 04:44:27;;;;;;;1.33;0.95;;;;;;;2.51;100.00;102214.25;6267320;28;20385;-67
2021/11/10 04:47:29;;;;;;;1.20;1.10;;;;;;;2.48;100.00;102216.84;6270855;28;20428;-66
2021/11/10 04:50:31;;;;;;;2.28;1.13;;;;;;;2.47;100.00;102211.66;6271198;28;20052;-66
2021/11/10 04:53:36;;;;;;;1.55;0.98;;;;;;;2.47;100.00;102209.06;6270336;28;20049;-66
2021/11/10 04:56:38;;;;;;;3.72;1.02;;;;;;;2.45;100.00;102213.34;6271157;28;20049;-66
2021/11/10 04:59:39;;;;;;;1.77;0.95;;;;;;;2.45;100.00;102206.47;6269384;28;20060;-67
2021/11/10 05:02:41;;;;;;;1.63;0.93;;;;;;;2.44;100.00;102198.66;6269393;28;20060;-66
2021/11/10 05:05:44;;;;;;;2.17;0.80;;;;;;;2.41;100.00;102188.28;6270202;28;20053;-66
2021/11/10 05:08:46;;;;;;;2.08;1.00;;;;;;;2.34;100.00;102189.09;6270915;28;20052;-67
2021/11/10 05:11:47;;;;;;;2.30;0.93;;;;;;;2.34;100.00;102194.28;6270766;28;20048;-66
2021/11/10 05:14:52;;;;;;;2.20;1.20;;;;;;;2.35;100.00;102193.44;6270268;28;20049;-67
2021/11/10 05:17:53;;;;;;;1.92;1.52;;;;;;;2.28;100.00;102193.41;6270645;28;20458;-66
2021/11/10 05:20:55;;;;;;;3.08;2.35;;;;;;;2.25;100.00;102198.56;6270687;28;20428;-67
2021/11/10 05:23:58;;;;;;;3.50;1.30;;;;;;;2.24;100.00;102191.66;6269899;28;20048;-66
2021/11/10 05:26:59;;;;;;;2.08;1.48;;;;;;;2.26;100.00;102184.75;6270853;28;20052;-66
2021/11/10 05:30:01;;;;;;;2.13;1.30;;;;;;;2.23;100.00;102186.47;6274868;28;20053;-67
2021/11/10 05:33:02;;;;;;;1.95;1.33;;;;;;;2.21;100.00;102195.97;6258003;28;20536;-67
2021/11/10 05:36:04;;;;;;;2.78;1.42;;;;;;;2.17;100.00;102202.84;6249901;28;20053;-67
2021/11/10 05:39:07;;;;;;;2.13;1.45;;;;;;;2.18;100.00;102203.72;6253283;28;20057;-67
2021/11/10 05:42:09;;;;;;;1.15;0.88;;;;;;;2.15;100.00;102196.81;6271108;28;20055;-67
2021/11/10 05:45:10;;;;;;;5.68;1.02;;;;;;;2.14;100.00;102194.22;6274254;28;20140;-67
2021/11/10 05:48:12;;;;;;;4.25;1.75;;;;;;;2.13;100.00;102195.91;6275102;28;20049;-66
2021/11/10 05:51:13;;;;;;;3.22;1.60;;;;;;;2.11;100.00;102200.25;6272975;28;20045;-66
2021/11/10 05:54:16;;;;;;;3.13;1.38;;;;;;;2.11;100.00;102196.78;6274245;28;20428;-67
2021/11/10 05:57:18;;;;;;;2.45;1.17;;;;;;;2.16;100.00;102205.44;6274480;28;20049;-67
2021/11/10 06:00:20;;;;;;;1.95;1.38;;;;;;;2.19;100.00;102205.47;6274690;28;20041;-66
2021/11/10 06:03:21;;;;;;;4.53;1.60;;;;;;;2.18;100.00;102198.53;6272411;28;20049;-66
2021/11/10 06:06:22;;;;;;;2.50;1.10;;;;;;;2.15;100.00;102203.72;6274122;28;20053;-66
2021/11/10 06:09:25;;;;;;;3.55;1.23;;;;;;;2.13;100.00;102201.09;6274320;28;20045;-66
2021/11/10 06:12:26;;;;;;;2.70;1.52;;;;;;;2.11;100.00;102199.38;6270549;28;20052;-66
2021/11/10 06:15:28;;;;;;;2.42;1.58;;;;;;;2.14;100.00;102194.22;6273710;28;20048;-66
2021/11/10 06:18:30;;;;;;;2.85;1.70;;;;;;;2.11;100.00;102184.69;6273425;28;20067;-65
2021/11/10 06:21:31;;;;;;;1.60;1.10;;;;;;;2.08;100.00;102182.06;6270486;28;20484;-66
2021/11/10 06:24:34;;;;;;;3.47;1.88;;;;;;;2.10;100.00;102179.50;6262308;28;20053;-66
2021/11/10 06:27:36;;;;;;;4.55;2.65;;;;;;;2.13;100.00;102195.06;6260327;28;20049;-66
2021/11/10 06:30:38;;;;;;;6.57;1.60;;;;;;;2.17;100.00;102195.06;6259404;28;20061;-66
2021/11/10 06:33:39;;;;;;;2.97;1.63;;;;;;;2.14;100.00;102191.63;6258585;28;20049;-66
2021/11/10 06:36:41;;;;;;;2.72;1.60;;;;;;;2.11;100.00;102200.25;6260730;28;20049;-66
2021/11/10 06:39:44;;;;;;;2.42;1.58;;;;;;;2.16;100.00;102200.28;6255868;28;20049;-66
2021/11/10 06:42:45;;;;;;;3.53;1.50;;;;;;;2.18;100.00;102201.13;6249052;28;20493;-66
2021/11/10 06:45:47;;;;;;;4.10;1.90;;;;;;;2.18;100.00;102199.44;6248074;28;20080;-66
2021/11/10 06:48:48;;;;;;;2.58;1.77;;;;;;;2.19;100.00;102201.16;6248819;28;20191;-66
2021/11/10 06:51:50;;;;;;;3.30;1.40;;;;;;;2.18;100.00;102199.44;6248353;28;20045;-66
2021/11/10 06:54:53;;;;;;;2.30;1.13;;;;;;;2.19;100.00;102195.09;6248108;28;20049;-66
2021/11/10 06:57:55;;;;;;;1.40;1.00;;;;;;;2.17;100.00;102179.53;6248407;28;20049;-66
2021/11/10 07:00:57;;;;;;;5.45;1.65;;;;;;;2.17;100.00;102183.84;6255581;28;20041;-66
2021/11/10 07:03:59;;;;;;;4.43;2.17;;;;;;;2.14;100.00;102169.16;6252601;28;20560;-66
2021/11/10 07:07:00;;;;;;;3.03;1.45;;;;;;;2.15;100.00;102181.25;6258333;28;20053;-66
2021/11/10 07:10:04;;;;;;;5.25;2.00;;;;;;;2.16;100.00;102182.13;6259962;28;20107;-66
2021/11/10 07:13:05;;;;;;;3.90;2.17;;;;;;;2.16;100.00;102171.75;6269602;28;20412;-65
2021/11/10 07:16:07;;;;;;;3.97;2.03;;;;;;;2.19;100.00;102197.69;6273164;28;20068;-67
2021/11/10 07:19:09;;;;;;;1.73;1.38;;;;;;;2.23;100.00;102207.22;6271757;28;20052;-67
2021/11/10 07:22:10;;;;;;;1.67;1.10;;;;;;;2.28;100.00;102219.34;6266856;28;20415;-67
2021/11/10 07:25:13;;;;;;;5.50;1.98;;;;;;;2.29;100.00;102230.59;6271717;28;20045;-66
2021/11/10 07:28:15;;;;;;;1.83;1.20;;;;;;;2.27;100.00;102233.19;6272617;28;20080;-67
2021/11/10 07:31:16;;;;;;;6.80;1.40;;;;;;;2.31;100.00;102228.00;6272371;28;20404;-67
2021/11/10 07:34:18;;;;;;;4.05;1.48;;;;;;;2.33;100.00;102227.16;6247481;28;20481;-67
2021/11/10 07:37:20;;;;;;;2.63;1.17;;;;;;;2.36;100.00;102229.75;6247725;28;20053;-67
2021/11/10 07:40:24;;;;;;;2.55;1.33;;;;;;;2.40;100.00;102228.91;6247674;28;20050;-66
2021/11/10 07:43:25;;;;;;;3.67;1.77;;;;;;;2.46;100.00;102223.75;6247041;28;20052;-67
2021/11/10 07:46:31;;;;;;;2.47;1.48;;;;;;;2.53;100.00;102235.00;6247957;28;20053;-66
2021/11/10 07:49:33;;;;;;;3.42;1.48;;;;;;;2.56;100.00;102250.59;6247513;28;20053;-67
2021/11/10 07:52:34;;;;;;;2.47;1.60;;;;;;;2.57;100.00;102254.06;6253545;28;20060;-68
2021/11/10 07:55:37;;;;;;;1.52;0.90;;;;;;;2.63;100.00;102239.38;6268116;28;20049;-68
2021/11/10 07:58:39;;;;;;;1.83;1.15;;;;;;;2.66;100.00;102230.72;6271714;28;20045;-67
2021/11/10 08:01:41;;;;;;;3.35;1.10;;;;;;;2.71;100.00;102229.88;6271137;28;20048;-68
2021/11/10 08:04:42;;;;;;;1.67;0.90;;;;;;;2.78;100.00;102238.56;6247364;28;20053;-67
2021/11/10 08:07:44;;;;;;;2.08;1.30;;;;;;;2.78;100.00;102233.38;6247055;28;20049;-67
2021/11/10 08:10:47;;;;;;;6.15;1.33;;;;;;;2.85;100.00;102231.66;6247075;28;20049;-67
2021/11/10 08:13:48;;;;;;;3.05;1.38;;;;;;;2.95;100.00;102233.41;6246319;28;20050;-68
2021/11/10 08:16:49;;;;;;;3.42;1.38;;;;;;;3.01;100.00;102229.09;6246726;28;20417;-68
2021/11/10 08:19:51;;;;;;;7.20;2.08;;;;;;;3.06;100.00;102229.09;6247030;28;20057;-68
2021/11/10 08:22:52;;;;;;;3.65;1.40;;;;;;;3.10;100.00;102241.25;6262305;28;20418;-68
2021/11/10 08:25:57;;;;;;;4.90;1.55;;;;;;;3.18;100.00;102241.22;6270474;28;20531;-68
2021/11/10 08:28:58;;;;;;;7.80;1.95;;;;;;;3.28;100.00;102237.78;6271451;28;20049;-68
2021/11/10 08:32:00;;;;;;;3.08;1.60;;;;;;;3.35;100.00;102238.66;6264038;28;20045;-67
2021/11/10 08:35:02;;;;;;;3.00;1.20;;;;;;;3.41;100.00;102241.28;6264387;28;20049;-67
2021/11/10 08:38:04;;;;;;;2.35;1.05;;;;;;;3.47;100.00;102230.88;6263785;28;20059;-68
2021/11/10 08:41:07;;;;;;;3.22;1.80;;;;;;;3.54;100.00;102228.28;6271423;28;20056;-68
2021/11/10 08:44:09;;;;;;;3.67;1.48;;;;;;;3.60;100.00;102226.53;6270453;28;20057;-68
2021/11/10 08:47:10;;;;;;;2.53;1.67;;;;;;;3.64;100.00;102218.75;6270941;28;20076;-67
2021/11/10 08:50:13;;;;;;;4.68;1.58;;;;;;;3.69;100.00;102219.59;6270996;28;20049;-67
2021/11/10 08:53:18;;;;;;;2.35;1.20;;;;;;;3.79;100.00;102228.25;6271179;28;20041;-68
2021/11/10 08:56:20;;;;;;;2.38;1.10;;;;;;;3.89;100.00;102227.34;6270526;28;20063;-68
2021/11/10 08:59:22;;;;;;;3.05;1.80;;;;;;;3.96;100.00;102225.63;6270807;28;20463;-68
2021/11/10 09:02:23;;;;;;;2.55;1.30;;;;;;;4.06;100.00;102238.59;6261724;28;20053;-67
2021/11/10 09:05:25;;;;;;;2.30;1.30;;;;;;;4.11;100.00;102245.53;6272288;28;20511;-68
2021/11/10 09:08:27;;;;;;;4.88;1.80;;;;;;;4.19;100.00;102233.38;6276560;28;20569;-68
2021/11/10 09:11:30;;;;;;;1.73;1.17;;;;;;;4.27;100.00;102232.47;6266208;28;20586;-68
2021/11/10 09:14:31;;;;;;;1.95;1.33;;;;;;;4.37;100.00;102238.50;6269088;28;20052;-68
2021/11/10 09:17:35;;;;;;;2.63;1.73;;;;;;;4.48;100.00;102230.66;6275315;28;20056;-68
2021/11/10 09:20:38;;;;;;;5.13;1.48;;;;;;;4.60;100.00;102240.16;6265462;28;20068;-68
2021/11/10 09:23:39;;;;;;;3.53;1.70;;;;;;;4.67;100.00;102232.28;6266761;28;20404;-68
2021/11/10 09:26:42;;;;;;;1.70;1.25;;;;;;;4.77;100.00;102240.94;6273061;28;20128;-67
2021/11/10 09:29:44;;;;;;;2.83;1.50;;;;;;;4.90;100.00;102223.47;6266344;28;20504;-67
2021/11/10 09:32:47;;;;;;;2.33;1.30;;;;;;;4.97;100.00;102231.25;6259815;28;20049;-68
2021/11/10 09:35:49;;;;;;;4.88;1.70;;;;;;;5.05;100.00;102233.81;6266361;28;20049;-68
2021/11/10 09:38:50;;;;;;;5.07;2.05;;;;;;;5.13;100.00;102233.75;6270911;28;20423;-68
2021/11/10 09:41:55;;;;;;;2.75;1.63;;;;;;;5.27;100.00;102224.97;6270241;28;20045;-68
2021/11/10 09:44:58;;;;;;;4.28;1.80;;;;;;;5.41;100.00;102229.22;6273825;28;20045;-67
2021/11/10 09:47:59;;;;;;;3.08;1.40;;;;;;;5.53;100.00;102229.09;6273503;28;20055;-67
2021/11/10 09:51:02;;;;;;;1.92;1.40;;;;;;;5.63;100.00;102227.28;6252184;28;20061;-67
2021/11/10 09:54:07;;;;;;;3.22;1.83;;;;;;;5.74;100.00;102220.22;6254327;28;20052;-67
2021/11/10 09:57:10;;;;;;;1.95;1.25;;;;;;;5.84;100.00;102233.16;6261711;28;20107;-67
2021/11/10 10:00:16;;;;;;;4.95;1.65;;;;;;;5.96;100.00;102227.00;6262122;28;20048;-68
2021/11/10 10:03:18;;;;;;;2.78;1.75;;;;;;;6.04;100.00;102238.22;6260719;28;20755;-67
2021/11/10 10:06:20;;;;;;;4.47;1.73;;;;;;;6.12;100.00;102224.22;6254283;28;20056;-67
2021/11/10 10:09:21;;;;;;;4.53;1.45;;;;;;;6.23;100.00;102231.06;6256760;28;20083;-67
2021/11/10 10:12:24;;;;;;;1.98;1.58;;;;;;;6.29;100.00;102212.69;6249215;28;20057;-68
2021/11/10 10:15:27;;;;;;;8.27;2.03;;;;;;;6.42;100.00;102216.03;6245940;28;20045;-67
2021/11/10 10:18:30;;;;;;;2.50;1.45;;;;;;;6.47;100.00;102221.19;6247195;28;20049;-67
2021/11/10 10:21:33;;;;;;;4.03;1.92;;;;;;;6.55;100.00;102232.41;6249276;28;20046;-67
2021/11/10 10:24:46;;;;;;;3.80;1.40;;;;;;;6.67;100.00;102231.38;6248580;28;20049;-67
2021/11/10 10:27:57;;;;;;;2.55;1.70;;;;;;;6.77;100.00;102233.84;6249104;28;20750;-67
2021/11/10 10:31:03;;;;;;;2.63;1.52;;;;;;;6.90;100.00;102231.06;6249253;28;20049;-67
2021/11/10 10:34:08;;;;;;;3.65;2.03;;;;;;;7.04;99.83;102223.88;6248880;28;20053;-67
2021/11/10 10:37:26;;;;;;;9.00;2.85;;;;;;;7.18;98.40;102208.00;6249094;28;20523;-67
2021/11/10 10:40:29;;;;;;;3.33;1.92;;;;;;;7.29;94.94;102219.16;6248953;28;20527;-67
2021/11/10 10:43:39;;;;;;;3.67;2.05;;;;;;;7.34;94.42;102225.16;6248186;28;20042;-67
2021/11/10 10:46:44;;;;;;;3.40;1.85;;;;;;;7.43;95.42;102208.47;6248933;28;20056;-67
2021/11/10 10:49:46;;;;;;;4.25;2.15;;;;;;;7.47;97.37;102215.38;6248762;28;20049;-67
2021/11/10 10:52:53;;;;;;;4.93;2.28;;;;;;;7.69;95.32;102195.78;6248431;28;20495;-68
2021/11/10 10:55:55;;;;;;;2.72;1.83;;;;;;;7.92;93.56;102195.38;6256284;28;20045;-66
2021/11/10 10:59:00;;;;;;;4.78;2.30;;;;;;;8.18;92.67;102191.38;6272760;28;20064;-66
2021/11/10 11:02:04;;;;;;;3.58;1.98;;;;;;;8.37;91.22;102203.25;6273132;28;20143;-66
2021/11/10 11:05:05;;;;;;;4.93;2.50;;;;;;;8.46;89.09;102196.94;6270309;28;20093;-66
2021/11/10 11:08:25;;;;;;;2.78;1.88;;;;;;;8.54;88.34;102192.38;6266980;28;20045;-66
2021/11/10 11:11:38;;;;;;;7.63;2.40;;;;;;;8.70;87.79;102192.91;6271056;28;20048;-67
2021/11/10 11:14:45;;;;;;;3.50;2.30;;;;;;;8.74;87.84;102181.47;6271988;28;20423;-67
2021/11/10 11:17:47;;;;;;;4.30;1.80;;;;;;;8.76;89.05;102174.44;6270807;28;20053;-67
2021/11/10 11:20:49;;;;;;;4.05;2.13;;;;;;;8.75;89.55;102173.56;6272902;28;20094;-66
2021/11/10 11:23:52;;;;;;;6.20;2.08;;;;;;;8.67;87.88;102172.88;6271904;28;20158;-67
2021/11/10 11:26:54;;;;;;;3.67;2.20;;;;;;;8.58;88.59;102162.59;6271356;28;20068;-67
2021/11/10 11:30:08;;;;;;;5.65;2.38;;;;;;;8.60;90.02;102168.69;6272532;28;20045;-68
2021/11/10 11:33:12;;;;;;;3.38;1.90;;;;;;;8.62;91.24;102166.88;6272502;28;20060;-67
2021/11/10 11:36:14;;;;;;;3.88;2.03;;;;;;;8.58;90.14;102155.63;6262921;28;20512;-67
2021/11/10 11:39:15;;;;;;;7.47;2.40;;;;;;;8.66;90.92;102160.66;6271863;28;20048;-67
2021/11/10 11:42:17;;;;;;;3.78;2.35;;;;;;;8.73;90.48;102153.56;6272109;28;20056;-67
2021/11/10 11:45:23;;;;;;;6.78;2.10;;;;;;;8.93;90.03;102150.44;6271367;28;20052;-68
2021/11/10 11:48:27;;;;;;;4.13;2.10;;;;;;;9.20;89.45;102148.91;6272139;28;20045;-67
2021/11/10 11:51:29;;;;;;;8.38;2.70;;;;;;;9.34;90.42;102138.94;6271845;28;20408;-68
2021/11/10 11:54:30;;;;;;;7.05;2.03;;;;;;;9.45;88.50;102133.38;6271285;28;20045;-68
2021/11/10 11:57:32;;;;;;;4.05;2.60;;;;;;;9.36;87.46;102139.78;6270044;28;20052;-67
2021/11/10 12:00:38;;;;;;;4.10;2.30;;;;;;;9.35;86.94;102138.88;6271776;28;20573;-67
2021/11/10 12:03:42;;;;;;;8.77;2.67;;;;;;;9.29;86.81;102139.03;6270986;28;20057;-67
2021/11/10 12:06:47;;;;;;;6.38;2.47;;;;;;;9.15;86.54;102139.41;6271890;28;20072;-67
2021/11/10 12:10:19;;;;;;;6.95;3.13;;;;;;;9.11;84.84;102140.38;6267007;28;20056;-67
2021/11/10 12:13:24;;;;;;;2.53;1.85;;;;;;;8.99;86.62;102134.56;6261186;28;20049;-67
2021/11/10 12:16:28;;;;;;;5.65;2.80;;;;;;;8.89;88.76;102124.28;6267312;28;20059;-67
2021/11/10 12:19:33;;;;;;;4.55;1.70;;;;;;;8.86;90.57;102129.63;6271477;28;20141;-67
2021/11/10 12:22:34;;;;;;;6.05;3.03;;;;;;;8.85;91.78;102124.41;6271385;28;20056;-67
2021/11/10 12:25:36;;;;;;;3.17;1.98;;;;;;;8.84;92.15;102125.31;6261305;28;20053;-69
2021/11/10 12:28:50;;;;;;;4.25;2.08;;;;;;;8.83;92.67;102132.31;6269491;28;20056;-70
2021/11/10 12:31:53;;;;;;;6.35;2.63;;;;;;;8.88;92.11;102129.59;6266016;28;20528;-69
2021/11/10 12:34:56;;;;;;;7.47;2.95;;;;;;;8.88;92.06;102137.44;6264536;28;20045;-69
2021/11/10 12:37:59;;;;;;;5.50;2.45;;;;;;;8.95;91.61;102138.16;6271100;28;20056;-69
2021/11/10 12:41:03;;;;;;;6.60;2.67;;;;;;;9.10;91.01;102137.78;6271291;28;20053;-69
2021/11/10 12:44:23;;;;;;;5.68;2.70;;;;;;;9.30;90.55;102139.91;6270946;28;20052;-69
2021/11/10 12:50:54;;;;;;;11.65;2.70;;;;;;;9.82;85.55;102135.91;6317973;27;20872;-69
2021/11/10 12:53:57;;;;;;;7.18;2.90;;;;;;;9.87;84.05;102127.00;6317289;28;20427;-69
2021/11/10 12:56:59;;;;;;;4.05;2.58;;;;;;;9.93;83.50;102120.69;6313103;28;20047;-68
2021/11/10 13:00:04;;;;;;;5.65;2.40;;;;;;;9.87;84.85;102119.09;6310253;28;20043;-69
2021/11/10 13:03:18;;;;;;;7.75;3.30;;;;;;;9.83;84.70;102120.09;6317726;28;20052;-68
2021/11/10 13:06:22;;;;;;;4.88;2.47;;;;;;;9.63;82.36;102125.06;6317036;28;20052;-69
2021/11/10 13:09:34;;;;;;;4.20;2.33;;;;;;;9.58;85.22;102127.81;6317498;28;20071;-68
2021/11/10 13:12:37;;;;;;;6.05;2.63;;;;;;;9.52;84.42;102124.47;6317529;28;20411;-68
2021/11/10 13:15:40;;;;;;;4.75;2.47;;;;;;;9.44;84.69;102122.03;6316994;28;20418;-69
2021/11/10 13:18:43;;;;;;;6.18;2.28;;;;;;;9.36;84.15;102118.78;6317309;28;20044;-68
2021/11/10 13:21:54;;;;;;;6.78;2.10;;;;;;;9.25;83.97;102119.03;6317623;28;20044;-69
2021/11/10 13:24:58;;;;;;;3.70;2.25;;;;;;;9.15;85.67;102114.94;6316678;28;20056;-69
2021/11/10 13:28:02;;;;;;;6.97;2.72;;;;;;;9.08;84.73;102116.88;6293603;28;20409;-68
2021/11/10 13:31:04;;;;;;;6.40;2.70;;;;;;;8.98;85.51;102119.72;6291918;28;20065;-68
2021/11/10 13:34:08;;;;;;;5.78;2.42;;;;;;;8.95;85.82;102119.78;6291317;28;20049;-69
2021/11/10 13:37:11;;;;;;;5.15;2.88;;;;;;;8.85;85.79;102116.53;6291951;28;20057;-66
2021/11/10 13:40:15;;;;;;;7.13;2.67;;;;;;;8.84;87.37;102110.44;6291592;28;20041;-69
2021/11/10 13:43:16;;;;;;;5.82;2.60;;;;;;;8.82;87.64;102108.78;6291652;28;20051;-68
2021/11/10 13:46:20;;;;;;;4.90;2.58;;;;;;;8.77;88.85;102102.78;6290985;28;20051;-68
2021/11/10 13:49:23;;;;;;;7.00;2.72;;;;;;;8.77;88.82;102106.25;6291341;28;20048;-69
2021/11/10 13:52:26;;;;;;;5.82;3.15;;;;;;;8.75;89.26;102102.81;6291386;28;20044;-66
2021/11/10 13:55:28;;;;;;;5.90;2.72;;;;;;;8.76;88.83;102101.91;6290695;28;20056;-67
2021/11/10 13:58:31;;;;;;;3.33;2.05;;;;;;;8.78;89.06;102105.34;6314838;28;20044;-67
2021/11/10 14:01:32;;;;;;;6.80;2.88;;;;;;;8.75;88.82;102105.41;6303727;28;20051;-66
2021/11/10 14:04:35;;;;;;;8.15;2.55;;;;;;;8.72;89.65;102096.75;6298911;28;20495;-68
2021/11/10 14:07:40;;;;;;;3.70;2.08;;;;;;;8.71;89.57;102097.66;6299630;28;20048;-67
2021/11/10 14:10:41;;;;;;;3.67;2.17;;;;;;;8.68;91.15;102105.63;6299260;28;20697;-67
2021/11/10 14:13:45;;;;;;;5.03;2.60;;;;;;;8.63;89.70;102097.88;6298877;28;20063;-68
2021/11/10 14:16:46;;;;;;;3.75;1.92;;;;;;;8.58;91.27;102097.97;6299395;28;20055;-66